createdAt,value
2022-07-28T00:00:19.448Z,101975.84
2022-07-28T00:02:53.453Z,101979.84
2022-07-28T00:05:22.292Z,101979.84
2022-07-28T00:07:50.815Z,101976.91
2022-07-28T00:10:19.408Z,101984.72
2022-07-28T00:12:51.536Z,101981.03
2022-07-28T00:15:22.654Z,101977.00
2022-07-28T00:17:54.194Z,101973.22
2022-07-28T00:20:22.784Z,101965.97
2022-07-28T00:22:53.628Z,101955.78
2022-07-28T00:25:27.912Z,101952.94
2022-07-28T00:27:56.183Z,101891.34
2022-07-28T00:30:26.706Z,101953.56
2022-07-28T00:32:57.450Z,101948.03
2022-07-28T00:35:31.019Z,101950.28
2022-07-28T00:38:08.258Z,101963.16
2022-07-28T00:40:58.266Z,101956.13
2022-07-28T00:43:27.074Z,101952.94
2022-07-28T00:45:59.177Z,101951.38
2022-07-28T00:48:27.961Z,101954.91
2022-07-28T00:50:57.148Z,101956.63
2022-07-28T00:53:25.965Z,101954.16
2022-07-28T00:56:06.433Z,101949.91
2022-07-28T00:58:36.025Z,101952.38
2022-07-28T01:04:02.772Z,101935.91
2022-07-28T01:06:53.381Z,101945.28
2022-07-28T01:09:43.153Z,101944.16
2022-07-28T01:12:22.330Z,101945.19
2022-07-28T01:15:02.769Z,101947.06
2022-07-28T01:17:44.498Z,101939.25
2022-07-28T01:20:17.619Z,101938.41
2022-07-28T01:23:03.552Z,101938.41
2022-07-28T01:25:48.430Z,101962.44
2022-07-28T01:28:30.220Z,101785.25
2022-07-28T01:31:06.666Z,101936.63
2022-07-28T01:33:39.777Z,101922.41
2022-07-28T01:36:14.127Z,101931.09
2022-07-28T01:38:45.076Z,101923.44
2022-07-28T01:41:19.198Z,101925.03
2022-07-28T01:43:52.937Z,101900.44
2022-07-28T01:46:23.231Z,101927.13
2022-07-28T01:48:52.512Z,101913.41
2022-07-28T01:51:25.941Z,101916.28
2022-07-28T01:53:59.715Z,101918.53
2022-07-28T01:56:30.933Z,101916.69
2022-07-28T01:59:04.763Z,101906.03
2022-07-28T02:01:37.482Z,101905.75
2022-07-28T02:04:11.072Z,101908.44
2022-07-28T02:06:47.179Z,101917.63
2022-07-28T02:09:16.053Z,101911.56
2022-07-28T02:11:53.291Z,101904.34
2022-07-28T02:14:24.921Z,101895.78
2022-07-28T02:16:58.487Z,101901.34
2022-07-28T02:19:32.269Z,101896.69
2022-07-28T02:22:02.881Z,101896.31
2022-07-28T02:24:32.846Z,101894.88
2022-07-28T02:27:11.722Z,101894.97
2022-07-28T02:29:51.063Z,101901.97
2022-07-28T02:32:33.293Z,101896.31
2022-07-28T02:35:09.724Z,101889.59
2022-07-28T02:37:46.297Z,101876.84
2022-07-28T02:40:18.435Z,101889.03
2022-07-28T02:42:49.916Z,101883.66
2022-07-28T02:45:22.173Z,101884.56
2022-07-28T02:47:57.914Z,101882.13
2022-07-28T02:50:30.501Z,101884.22
2022-07-28T02:53:15.808Z,101888.56
2022-07-28T02:55:48.820Z,101891.28
2022-07-28T02:58:22.046Z,101899.53
2022-07-28T03:00:55.810Z,101904.25
2022-07-28T03:03:29.574Z,101902.00
2022-07-28T03:05:57.810Z,101904.25
2022-07-28T03:08:27.682Z,101893.25
2022-07-28T03:11:12.227Z,101874.59
2022-07-28T03:13:44.976Z,101890.78
2022-07-28T03:16:16.750Z,101904.78
2022-07-28T03:18:46.860Z,101900.84
2022-07-28T03:21:25.662Z,101906.53
2022-07-28T03:23:57.740Z,101899.84
2022-07-28T03:26:41.778Z,101902.31
2022-07-28T03:29:13.261Z,101915.75
2022-07-28T03:31:48.166Z,101907.91
2022-07-28T03:34:22.021Z,101908.81
2022-07-28T03:36:58.319Z,101910.41
2022-07-28T03:39:33.053Z,101826.25
2022-07-28T03:42:04.266Z,101912.78
2022-07-28T03:44:35.266Z,101911.16
2022-07-28T03:47:04.199Z,101908.47
2022-07-28T03:49:36.992Z,101910.03
2022-07-28T03:52:10.304Z,101908.34
2022-07-28T03:54:41.253Z,101912.31
2022-07-28T03:57:10.110Z,101919.84
2022-07-28T03:59:38.391Z,101896.34
2022-07-28T04:02:09.363Z,101916.41
2022-07-28T04:04:39.495Z,101918.16
2022-07-28T04:07:08.103Z,101913.53
2022-07-28T04:09:38.960Z,101902.19
2022-07-28T04:12:08.297Z,101910.53
2022-07-28T04:14:38.674Z,101914.81
2022-07-28T04:17:13.513Z,101921.41
2022-07-28T04:19:43.592Z,101921.03
2022-07-28T04:22:17.293Z,101914.53
2022-07-28T04:24:49.003Z,101907.81
2022-07-28T04:27:21.907Z,101900.16
2022-07-28T04:29:52.158Z,101906.78
2022-07-28T04:32:21.925Z,101913.69
2022-07-28T04:34:57.033Z,101946.75
2022-07-28T04:37:25.617Z,101924.28
2022-07-28T04:40:02.044Z,101920.22
2022-07-28T04:42:30.293Z,101925.84
2022-07-28T04:44:59.411Z,101910.69
2022-07-28T04:47:35.278Z,101931.78
2022-07-28T04:50:08.750Z,101922.50
2022-07-28T04:52:40.024Z,101895.56
2022-07-28T04:55:11.250Z,101922.66
2022-07-28T04:57:40.665Z,101918.13
2022-07-28T05:00:13.699Z,101923.53
2022-07-28T05:02:46.457Z,101921.72
2022-07-28T05:05:16.235Z,101925.88
2022-07-28T05:07:46.920Z,101922.97
2022-07-28T05:10:15.303Z,101926.84
2022-07-28T05:12:47.310Z,101914.16
2022-07-28T05:15:15.373Z,101921.66
2022-07-28T05:17:45.871Z,101915.13
2022-07-28T05:20:17.567Z,101925.56
2022-07-28T05:22:50.914Z,101915.97
2022-07-28T05:25:22.767Z,101918.63
2022-07-28T05:27:52.942Z,101923.31
2022-07-28T05:30:22.183Z,101923.16
2022-07-28T05:32:51.168Z,101925.81
2022-07-28T05:35:21.871Z,101927.72
2022-07-28T05:37:54.808Z,101926.69
2022-07-28T05:40:26.660Z,101927.81
2022-07-28T05:42:55.025Z,101928.31
2022-07-28T05:45:24.374Z,101925.56
2022-07-28T05:47:54.316Z,101920.50
2022-07-28T05:50:25.251Z,101910.41
2022-07-28T05:52:54.013Z,101927.13
2022-07-28T05:55:22.610Z,101927.34
2022-07-28T05:57:52.046Z,101924.03
2022-07-28T06:00:27.173Z,101917.53
2022-07-28T06:03:02.015Z,101922.44
2022-07-28T06:05:32.752Z,101891.06
2022-07-28T06:08:01.406Z,101919.63
2022-07-28T06:10:47.398Z,101917.84
2022-07-28T06:13:19.743Z,101929.97
2022-07-28T06:15:49.227Z,101926.19
2022-07-28T06:18:21.881Z,101927.75
2022-07-28T06:20:51.350Z,101920.47
2022-07-28T06:23:23.571Z,101932.75
2022-07-28T06:25:53.622Z,101930.38
2022-07-28T06:28:22.022Z,101928.19
2022-07-28T06:30:50.778Z,101944.72
2022-07-28T06:33:21.477Z,101933.22
2022-07-28T06:35:51.793Z,101934.13
2022-07-28T06:38:20.762Z,101928.19
2022-07-28T06:40:50.906Z,101926.34
2022-07-28T06:43:20.961Z,101933.03
2022-07-28T06:45:49.092Z,101927.25
2022-07-28T06:48:17.973Z,101935.91
2022-07-28T06:50:47.026Z,101917.44
2022-07-28T06:53:19.372Z,101927.88
2022-07-28T06:55:49.877Z,101927.25
2022-07-28T06:58:18.522Z,101930.06
2022-07-28T07:00:47.622Z,101928.34
2022-07-28T07:03:15.938Z,101925.97
2022-07-28T07:05:46.809Z,101924.88
2022-07-28T07:08:24.606Z,101914.13
2022-07-28T07:10:53.391Z,101915.25
2022-07-28T07:13:23.484Z,101875.34
2022-07-28T07:15:52.020Z,101911.00
2022-07-28T07:18:20.420Z,101906.72
2022-07-28T07:20:50.556Z,101908.31
2022-07-28T07:23:19.028Z,101879.06
2022-07-28T07:25:52.092Z,101909.84
2022-07-28T07:28:20.750Z,101907.31
2022-07-28T07:30:49.605Z,101898.16
2022-07-28T07:33:19.138Z,101900.47
2022-07-28T07:35:47.702Z,101898.00
2022-07-28T07:38:15.975Z,101898.00
2022-07-28T07:40:44.680Z,101900.34
2022-07-28T07:43:14.456Z,101879.53
2022-07-28T07:45:42.971Z,101904.59
2022-07-28T07:48:11.376Z,101909.97
2022-07-28T07:50:41.912Z,101904.94
2022-07-28T07:53:12.706Z,101900.84
2022-07-28T07:55:40.762Z,101895.69
2022-07-28T07:58:09.932Z,101882.16
2022-07-28T08:00:40.867Z,101919.59
2022-07-28T08:03:12.361Z,101895.72
2022-07-28T08:05:42.387Z,101894.78
2022-07-28T08:08:11.563Z,101878.81
2022-07-28T08:10:41.583Z,101887.03
2022-07-28T08:13:12.307Z,101893.47
2022-07-28T08:15:42.312Z,101882.16
2022-07-28T08:18:12.969Z,101894.84
2022-07-28T08:20:53.882Z,101886.59
2022-07-28T08:23:26.186Z,101887.19
2022-07-28T08:25:55.648Z,101878.25
2022-07-28T08:28:24.265Z,101882.72
2022-07-28T08:30:56.955Z,101884.19
2022-07-28T08:33:27.773Z,101877.38
2022-07-28T08:35:58.813Z,101882.78
2022-07-28T08:38:28.455Z,101878.47
2022-07-28T08:40:58.958Z,101874.72
2022-07-28T08:43:35.200Z,101865.13
2022-07-28T08:46:07.276Z,101878.41
2022-07-28T08:48:40.130Z,101871.84
2022-07-28T08:51:09.405Z,101878.56
2022-07-28T08:53:39.220Z,101869.00
2022-07-28T08:56:09.600Z,101875.97
2022-07-28T08:58:39.680Z,101874.47
2022-07-28T09:01:14.729Z,101876.53
2022-07-28T09:03:44.275Z,101863.50
2022-07-28T09:06:13.509Z,101871.00
2022-07-28T09:08:47.808Z,101879.34
2022-07-28T09:11:19.318Z,101878.50
2022-07-28T09:13:52.190Z,101871.22
2022-07-28T09:16:24.521Z,101870.19
2022-07-28T09:18:54.082Z,101866.69
2022-07-28T09:21:22.845Z,101858.38
2022-07-28T09:23:54.362Z,101871.16
2022-07-28T09:26:23.285Z,101873.19
2022-07-28T09:28:56.961Z,101861.84
2022-07-28T09:31:30.882Z,101857.53
2022-07-28T09:34:02.498Z,101875.16
2022-07-28T09:36:40.326Z,101860.19
2022-07-28T09:39:10.589Z,101853.97
2022-07-28T09:41:49.473Z,101851.19
2022-07-28T09:44:23.630Z,101846.06
2022-07-28T09:46:53.598Z,101848.31
2022-07-28T09:49:28.660Z,101817.91
2022-07-28T09:52:02.861Z,101851.88
2022-07-28T09:54:31.690Z,101865.72
2022-07-28T09:56:59.924Z,101853.16
2022-07-28T09:59:41.998Z,101846.78
2022-07-28T10:02:28.193Z,101849.53
2022-07-28T10:05:00.989Z,101847.59
2022-07-28T10:07:33.197Z,101851.97
2022-07-28T10:10:02.746Z,101850.97
2022-07-28T10:12:35.144Z,101830.09
2022-07-28T10:15:34.437Z,101839.53
2022-07-28T10:18:07.578Z,101835.09
2022-07-28T10:20:39.071Z,101825.56
2022-07-28T10:23:11.769Z,101782.72
2022-07-28T10:25:41.954Z,101829.22
2022-07-28T10:28:12.932Z,101824.16
2022-07-28T10:30:44.355Z,101823.19
2022-07-28T10:33:18.115Z,101817.50
2022-07-28T10:35:55.298Z,101813.41
2022-07-28T10:38:27.631Z,101804.56
2022-07-28T10:41:00.713Z,101802.84
2022-07-28T10:43:31.297Z,101792.84
2022-07-28T10:46:06.122Z,101803.22
2022-07-28T10:48:39.839Z,101829.97
2022-07-28T10:51:18.299Z,101806.13
2022-07-28T10:53:57.006Z,101807.16
2022-07-28T10:56:35.741Z,101804.81
2022-07-28T10:59:16.650Z,101807.28
2022-07-28T12:33:53.887Z,101738.13
2022-07-28T12:36:27.545Z,101729.28
2022-07-28T12:38:57.345Z,101728.44
2022-07-28T12:41:35.616Z,101723.16
2022-07-28T12:44:06.783Z,101725.22
2022-07-28T12:46:35.412Z,101718.50
2022-07-28T12:49:06.061Z,101720.75
2022-07-28T12:51:41.675Z,101710.94
2022-07-28T12:54:12.242Z,101716.38
2022-07-28T12:56:47.385Z,101694.25
2022-07-28T12:59:19.666Z,101692.41
2022-07-28T13:01:52.743Z,101705.00
2022-07-28T13:05:08.381Z,101708.94
2022-07-28T13:07:43.494Z,101706.81
2022-07-28T13:10:13.211Z,101657.13
2022-07-28T13:12:43.602Z,101688.91
2022-07-28T13:15:18.119Z,101701.09
2022-07-28T13:17:53.641Z,101713.31
2022-07-28T13:20:26.154Z,101696.25
2022-07-28T13:23:00.596Z,101706.19
2022-07-28T13:25:34.212Z,101707.72
2022-07-28T13:28:03.134Z,101692.88
2022-07-28T13:30:31.414Z,101696.38
2022-07-28T13:33:09.396Z,101686.16
2022-07-28T13:35:41.951Z,101694.41
2022-07-28T13:38:14.249Z,101691.91
2022-07-28T13:40:43.317Z,101699.47
2022-07-28T13:43:12.854Z,101705.91
2022-07-28T13:45:44.610Z,101700.53
2022-07-28T13:48:17.397Z,101689.47
2022-07-28T13:50:45.814Z,101703.44
2022-07-28T13:53:15.207Z,101700.91
2022-07-28T13:55:43.661Z,101705.66
2022-07-28T13:58:13.012Z,101692.06
2022-07-28T14:00:43.619Z,101699.03
2022-07-28T14:03:15.325Z,101697.38
2022-07-28T14:05:48.378Z,101706.19
2022-07-28T14:08:25.159Z,101705.41
2022-07-28T14:10:59.732Z,101698.06
2022-07-28T14:13:32.004Z,101698.75
2022-07-28T14:16:14.379Z,101698.25
2022-07-28T14:18:43.220Z,101691.00
2022-07-28T14:21:11.685Z,101691.97
2022-07-28T14:23:42.100Z,101693.56
2022-07-28T14:26:34.942Z,101691.56
2022-07-28T14:29:02.061Z,101681.31
2022-07-28T14:31:30.923Z,101679.97
2022-07-28T14:34:03.632Z,101679.19
2022-07-28T14:36:32.752Z,101675.06
2022-07-28T14:39:02.439Z,101673.09
2022-07-28T14:41:33.904Z,101668.88
2022-07-28T14:44:02.368Z,101677.66
2022-07-28T14:46:30.385Z,101672.25
2022-07-28T14:48:59.004Z,101529.28
2022-07-28T14:51:27.563Z,101663.84
2022-07-28T14:53:57.844Z,101649.03
2022-07-28T14:56:27.635Z,101650.72
2022-07-28T14:58:58.868Z,101650.00
2022-07-28T15:01:27.871Z,101653.53
2022-07-28T15:04:04.538Z,101643.84
2022-07-28T15:06:32.740Z,101645.91
2022-07-28T15:09:03.515Z,101645.63
2022-07-28T15:11:37.122Z,101636.31
2022-07-28T15:14:11.866Z,101640.47
2022-07-28T15:16:43.774Z,101637.66
2022-07-28T15:19:12.659Z,101600.22
2022-07-28T15:21:40.987Z,101650.13
2022-07-28T15:24:10.717Z,101649.84
2022-07-28T15:26:43.182Z,101646.81
2022-07-28T15:29:13.792Z,101647.06
2022-07-28T15:31:45.339Z,101653.13
2022-07-28T15:34:18.334Z,101652.47
2022-07-28T15:36:47.898Z,101650.34
2022-07-28T15:39:16.336Z,101651.31
2022-07-28T15:41:47.944Z,101664.91
2022-07-28T15:44:18.543Z,101654.47
2022-07-28T15:46:57.709Z,101544.44
2022-07-28T15:49:28.822Z,101645.50
2022-07-28T15:52:03.010Z,101641.59
2022-07-28T15:54:31.609Z,101642.19
2022-07-28T15:57:03.874Z,101637.84
2022-07-28T15:59:50.170Z,101637.81
2022-07-28T16:02:19.555Z,101640.53
2022-07-28T16:04:48.773Z,101645.22
2022-07-28T16:07:29.692Z,101644.03
2022-07-28T16:09:59.991Z,101637.56
2022-07-28T16:12:31.572Z,101638.75
2022-07-28T16:15:01.774Z,101640.44
2022-07-28T16:17:34.879Z,101638.53
2022-07-28T16:20:03.169Z,101640.72
2022-07-28T16:22:32.200Z,101637.81
2022-07-28T16:25:02.777Z,101638.00
2022-07-28T16:27:32.470Z,101641.16
2022-07-28T16:30:00.853Z,101640.59
2022-07-28T16:32:33.997Z,101646.25
2022-07-28T16:35:02.444Z,101641.22
2022-07-28T16:37:40.253Z,101637.31
2022-07-28T16:40:12.658Z,101637.22
2022-07-28T16:42:48.647Z,101641.94
2022-07-28T16:45:19.389Z,101648.91
2022-07-28T16:47:48.831Z,101638.09
2022-07-28T16:50:19.278Z,101637.94
2022-07-28T16:52:49.676Z,101642.25
2022-07-28T16:55:23.230Z,101635.81
2022-07-28T16:57:53.447Z,101637.38
2022-07-28T17:00:25.640Z,101634.69
2022-07-28T17:02:56.645Z,101625.66
2022-07-28T17:05:25.372Z,101624.72
2022-07-28T17:07:56.681Z,101633.00
2022-07-28T17:10:27.405Z,101647.22
2022-07-28T17:12:58.556Z,101637.59
2022-07-28T17:15:29.092Z,101644.31
2022-07-28T17:17:57.471Z,101642.63
2022-07-28T17:20:26.729Z,101617.84
2022-07-28T17:22:54.835Z,101627.00
2022-07-28T17:25:50.251Z,101626.50
2022-07-28T17:28:17.104Z,101630.97
2022-07-28T17:30:45.774Z,101628.91
2022-07-28T17:33:14.857Z,101631.56
2022-07-28T17:35:45.063Z,101623.41
2022-07-28T17:38:15.819Z,101623.97
2022-07-28T17:40:47.325Z,101631.66
2022-07-28T17:43:19.421Z,101637.34
2022-07-28T17:45:51.858Z,101632.53
2022-07-28T17:48:24.054Z,101639.38
2022-07-28T17:50:52.334Z,101634.22
2022-07-28T17:53:21.313Z,101629.50
2022-07-28T17:56:00.352Z,101628.88
2022-07-28T17:58:32.657Z,101618.66
2022-07-28T18:01:10.194Z,101626.34
2022-07-28T18:03:56.644Z,101635.75
2022-07-28T18:06:30.015Z,101635.75
2022-07-28T18:09:05.744Z,101633.00
2022-07-28T18:11:56.642Z,101607.47
2022-07-28T18:14:29.623Z,101633.44
2022-07-28T18:17:01.434Z,101634.09
2022-07-28T18:19:31.061Z,101642.56
2022-07-28T18:21:59.616Z,101635.66
2022-07-28T18:24:28.957Z,101641.31
2022-07-28T18:26:59.280Z,101630.06
2022-07-28T18:29:38.637Z,101606.38
2022-07-28T18:32:15.282Z,101634.16
2022-07-28T18:34:45.387Z,101636.56
2022-07-28T18:37:13.953Z,101633.78
2022-07-28T18:39:45.272Z,101634.00
2022-07-28T18:42:16.410Z,101636.66
2022-07-28T18:44:50.112Z,101504.91
2022-07-28T18:47:18.408Z,101636.94
2022-07-28T18:49:47.141Z,101631.81
2022-07-28T18:52:18.725Z,101632.72
2022-07-28T18:54:48.318Z,101629.59
2022-07-28T18:57:17.173Z,101635.09
2022-07-28T18:59:52.035Z,101633.88
2022-07-28T19:02:26.301Z,101634.03
2022-07-28T19:04:54.510Z,101632.28
2022-07-28T19:07:22.807Z,101633.34
2022-07-28T19:09:53.077Z,101639.47
2022-07-28T19:12:26.400Z,101631.44
2022-07-28T19:14:57.562Z,101625.13
2022-07-28T19:17:29.365Z,101633.25
2022-07-28T19:19:59.350Z,101628.81
2022-07-28T19:22:29.428Z,101638.34
2022-07-28T19:24:58.905Z,101633.75
2022-07-28T19:27:27.349Z,101634.16
2022-07-28T19:30:03.676Z,101650.44
2022-07-28T19:32:38.482Z,101654.56
2022-07-28T19:35:09.430Z,101666.06
2022-07-28T19:37:39.010Z,101660.28
2022-07-28T19:40:08.404Z,101670.00
2022-07-28T19:42:37.266Z,101666.06
2022-07-28T19:45:08.874Z,101662.91
2022-07-28T19:47:41.761Z,101678.13
2022-07-28T19:50:11.304Z,101680.13
2022-07-28T19:52:39.525Z,101682.13
2022-07-28T19:55:11.167Z,101664.22
2022-07-28T19:57:42.196Z,101686.78
2022-07-28T20:00:12.973Z,101689.13
2022-07-28T20:02:42.965Z,101683.84
2022-07-28T20:05:11.804Z,101679.00
2022-07-28T20:07:42.337Z,101682.16
2022-07-28T20:10:14.916Z,101676.44
2022-07-28T20:12:43.052Z,101683.09
2022-07-28T20:15:11.790Z,101684.22
2022-07-28T20:17:40.894Z,101687.38
2022-07-28T20:20:13.647Z,101690.72
2022-07-28T20:22:42.958Z,101686.94
2022-07-28T20:25:13.092Z,101684.63
2022-07-28T20:27:47.534Z,101683.16
2022-07-28T20:30:19.246Z,101689.28
2022-07-28T20:32:47.540Z,101695.91
2022-07-28T20:35:19.400Z,101695.91
2022-07-28T20:37:48.308Z,101697.13
2022-07-28T20:40:28.943Z,101703.19
2022-07-28T20:42:57.579Z,101705.53
2022-07-28T20:45:34.498Z,101702.91
2022-07-28T20:48:05.894Z,101697.13
2022-07-28T20:50:37.907Z,101702.25
2022-07-28T20:53:10.088Z,101694.56
2022-07-28T20:55:38.863Z,101690.63
2022-07-28T20:58:07.678Z,101714.16
2022-07-28T21:00:38.890Z,101716.63
2022-07-28T21:03:07.022Z,101716.41
2022-07-28T21:05:36.099Z,101714.72
2022-07-28T21:08:16.339Z,101715.53
2022-07-28T21:10:45.989Z,101711.69
2022-07-28T21:13:15.095Z,101716.34
2022-07-28T21:15:43.991Z,101721.13
2022-07-28T21:18:13.277Z,101708.69
2022-07-28T21:20:43.694Z,101714.13
2022-07-28T21:23:13.355Z,101717.25
2022-07-28T21:25:45.335Z,101719.88
2022-07-28T21:28:32.220Z,101724.56
2022-07-28T21:31:01.703Z,101718.00
2022-07-28T21:33:33.586Z,101713.13
2022-07-28T21:36:04.289Z,101712.19
2022-07-28T21:38:33.713Z,101721.78
2022-07-28T21:41:04.506Z,101722.31
2022-07-28T21:43:37.899Z,101709.75
2022-07-28T21:46:09.057Z,101713.75
2022-07-28T21:48:39.907Z,101723.75
2022-07-28T21:51:18.380Z,101724.94
2022-07-28T21:53:54.662Z,101723.19
2022-07-28T21:56:24.302Z,101715.56
2022-07-28T21:58:52.605Z,101721.41
2022-07-28T22:01:23.998Z,101720.69
2022-07-28T22:03:52.715Z,101724.50
2022-07-28T22:06:21.875Z,101726.81
2022-07-28T22:08:54.272Z,101719.63
2022-07-28T22:11:24.346Z,101718.03
2022-07-28T22:14:07.938Z,101723.88
2022-07-28T22:16:36.878Z,101725.03
2022-07-28T22:19:05.687Z,101737.41
2022-07-28T22:21:38.275Z,101728.22
2022-07-28T22:24:07.015Z,101731.31
2022-07-28T22:26:39.476Z,101729.91
2022-07-28T22:29:11.809Z,101730.84
2022-07-28T22:31:42.877Z,101743.56
2022-07-28T22:34:11.338Z,101738.28
2022-07-28T22:36:39.857Z,101729.47
2022-07-28T22:39:08.647Z,101726.16
2022-07-28T22:41:36.675Z,101725.59
2022-07-28T22:44:09.176Z,101726.06
2022-07-28T22:46:37.697Z,101716.28
2022-07-28T22:49:07.227Z,101726.06
2022-07-28T22:51:36.973Z,101729.84
2022-07-28T22:56:58.667Z,101724.38
2022-07-28T22:59:29.994Z,101727.94
2022-07-28T23:02:03.044Z,101715.72
2022-07-28T23:04:31.831Z,101731.44
2022-07-28T23:07:03.027Z,101730.19
2022-07-28T23:09:31.122Z,101726.53
2022-07-28T23:11:59.969Z,101728.97
2022-07-28T23:14:29.503Z,101725.56
2022-07-28T23:16:57.852Z,101733.66
2022-07-28T23:19:29.014Z,101728.06
2022-07-28T23:21:58.202Z,101723.50
2022-07-28T23:24:26.740Z,101724.81
2022-07-28T23:27:00.656Z,101719.94
2022-07-28T23:29:32.792Z,101720.31
2022-07-28T23:32:01.308Z,101724.63
2022-07-28T23:34:29.764Z,101712.81
2022-07-28T23:36:58.539Z,101713.84
2022-07-28T23:39:26.834Z,101714.81
2022-07-28T23:41:55.361Z,101710.56
2022-07-28T23:44:26.021Z,101715.38
2022-07-28T23:46:57.118Z,101715.38
2022-07-28T23:49:25.305Z,101717.44
2022-07-28T23:51:55.950Z,101720.63
2022-07-28T23:54:25.287Z,101719.41
2022-07-28T23:56:59.672Z,101717.72
2022-07-28T23:59:29.535Z,101712.53
